Terminal Aerodrome Forecast
Issued by NWS

Home | Current Version | Previous Version | Graphics & Text | Print | Product List | Glossary On
Versions: 1 2 3 4 5 6 7 8 9 10 11 12 13 14 15 16 17 18 19 20 21 22 23 24 25 26
170
FTUS43 KGRB 171129
TAFATW
TAF
KATW 171129Z 1712/1812 18005KT P6SM FEW250
      TEMPO 1712/1714 4SM BR
     FM180200 22008KT 6SM BR FEW250 WS015/26040KT
     FM181000 27008KT P6SM FEW250 WS015/30035KT=

USA.gov is the U.S. government's official web portal to all federal, state and local government web resources and services.